createdAt,value
2023-05-20T00:01:23.926Z,5.50
2023-05-20T00:03:51.830Z,4.30
2023-05-20T00:06:19.709Z,4.13
2023-05-20T00:08:48.918Z,4.23
2023-05-20T00:11:16.755Z,5.13
2023-05-20T00:13:44.672Z,3.43
2023-05-20T00:16:13.079Z,5.97
2023-05-20T00:18:41.654Z,5.67
2023-05-20T00:21:09.461Z,3.63
2023-05-20T00:23:37.288Z,4.30
2023-05-20T00:26:06.686Z,4.83
2023-05-20T00:28:34.486Z,3.73
2023-05-20T00:31:02.267Z,6.67
2023-05-20T00:33:30.120Z,5.27
2023-05-20T00:35:57.897Z,5.90
2023-05-20T00:38:25.680Z,6.03
2023-05-20T00:40:53.599Z,4.30
2023-05-20T00:43:25.314Z,4.67
2023-05-20T00:45:54.119Z,4.57
2023-05-20T00:48:23.118Z,3.50
2023-05-20T00:50:51.677Z,6.60
2023-05-20T00:53:19.911Z,4.93
2023-05-20T00:55:48.200Z,4.23
2023-05-20T00:58:15.998Z,2.77
2023-05-20T01:00:45.483Z,3.67
2023-05-20T01:03:13.706Z,5.40
2023-05-20T01:05:42.356Z,4.27
2023-05-20T01:08:10.674Z,4.03
2023-05-20T01:10:42.933Z,3.20
2023-05-20T01:13:16.180Z,4.10
2023-05-20T01:15:48.514Z,5.43
2023-05-20T01:18:18.570Z,4.30
2023-05-20T01:20:50.449Z,3.47
2023-05-20T01:23:19.682Z,4.30
2023-05-20T01:25:47.589Z,4.73
2023-05-20T01:28:17.897Z,4.93
2023-05-20T01:30:53.791Z,4.00
2023-05-20T01:33:26.425Z,5.13
2023-05-20T01:35:54.506Z,6.10
2023-05-20T01:38:25.932Z,5.03
2023-05-20T01:40:55.879Z,7.53
2023-05-20T01:43:25.658Z,5.87
2023-05-20T01:45:53.596Z,4.10
2023-05-20T01:48:22.535Z,4.43
2023-05-20T01:50:50.465Z,5.47
2023-05-20T01:53:18.251Z,4.70
2023-05-20T01:55:47.638Z,5.13
2023-05-20T01:58:15.480Z,4.23
2023-05-20T02:00:43.424Z,4.17
2023-05-20T02:03:11.283Z,3.83
2023-05-20T02:05:40.111Z,4.00
2023-05-20T02:08:07.946Z,4.60
2023-05-20T02:10:35.794Z,4.23
2023-05-20T02:13:05.149Z,4.13
2023-05-20T02:15:33.769Z,3.67
2023-05-20T02:18:02.428Z,4.60
2023-05-20T02:20:30.273Z,3.87
2023-05-20T02:22:57.964Z,4.97
2023-05-20T02:25:25.870Z,4.53
2023-05-20T02:27:53.836Z,4.83
2023-05-20T02:30:23.047Z,4.13
2023-05-20T02:32:51.675Z,6.13
2023-05-20T02:35:19.454Z,3.70
2023-05-20T02:37:48.328Z,3.70
2023-05-20T02:40:17.091Z,6.03
2023-05-20T02:42:44.849Z,5.87
2023-05-20T02:45:12.532Z,6.17
2023-05-20T02:47:42.059Z,4.10
2023-05-20T02:50:11.532Z,5.37
2023-05-20T02:52:39.865Z,6.10
2023-05-20T02:55:08.399Z,4.40
2023-05-20T02:57:38.166Z,3.77
2023-05-20T03:00:11.457Z,6.60
2023-05-20T03:02:40.952Z,5.47
2023-05-20T03:05:10.799Z,4.47
2023-05-20T03:07:38.653Z,4.20
2023-05-20T03:10:09.304Z,4.13
2023-05-20T03:12:39.812Z,6.17
2023-05-20T03:15:09.241Z,5.83
2023-05-20T03:17:37.913Z,4.80
2023-05-20T03:20:09.098Z,5.77
2023-05-20T03:22:37.495Z,4.47
2023-05-20T03:25:06.330Z,4.30
2023-05-20T03:27:36.806Z,4.13
2023-05-20T03:30:05.563Z,4.23
2023-05-20T03:32:33.494Z,5.27
2023-05-20T03:35:01.898Z,4.57
2023-05-20T03:37:31.153Z,4.60
2023-05-20T03:39:58.994Z,8.93
2023-05-20T03:42:26.708Z,6.20
2023-05-20T03:44:55.262Z,5.50
2023-05-20T03:47:23.483Z,5.30
2023-05-20T03:49:51.333Z,3.77
2023-05-20T03:52:19.520Z,5.17
2023-05-20T03:54:48.904Z,3.63
2023-05-20T03:57:16.886Z,4.50
2023-05-20T03:59:44.647Z,5.40
2023-05-20T04:02:12.644Z,4.53
2023-05-20T04:04:44.072Z,5.03
2023-05-20T04:07:12.282Z,5.43
2023-05-20T04:09:41.245Z,4.70
2023-05-20T04:12:11.383Z,3.77
2023-05-20T04:14:42.156Z,4.87
2023-05-20T04:17:10.499Z,5.70
2023-05-20T04:19:39.129Z,3.57
2023-05-20T04:22:07.290Z,3.50
2023-05-20T04:24:35.469Z,4.00
2023-05-20T04:27:03.173Z,4.50
2023-05-20T04:29:34.178Z,8.20
2023-05-20T04:32:03.680Z,4.50
2023-05-20T04:34:35.391Z,5.17
2023-05-20T04:37:03.770Z,4.43
2023-05-20T04:39:31.820Z,4.47
2023-05-20T04:41:59.810Z,4.23
2023-05-20T04:44:28.360Z,6.60
2023-05-20T04:46:58.121Z,4.70
2023-05-20T04:49:26.457Z,4.77
2023-05-20T04:51:55.677Z,4.57
2023-05-20T04:54:23.501Z,4.20
2023-05-20T04:56:51.282Z,7.37
2023-05-20T04:59:19.258Z,6.83
2023-05-20T05:01:47.328Z,5.03
2023-05-20T05:04:16.756Z,4.80
2023-05-20T05:06:44.687Z,7.37
2023-05-20T05:09:13.776Z,4.27
2023-05-20T05:11:43.380Z,4.33
2023-05-20T05:14:11.587Z,3.50
2023-05-20T05:16:39.865Z,6.53
2023-05-20T05:19:08.699Z,5.90
2023-05-20T05:21:40.662Z,3.77
2023-05-20T05:24:09.074Z,4.53
2023-05-20T05:26:37.554Z,5.47
2023-05-20T05:29:05.344Z,5.73
2023-05-20T05:31:33.592Z,8.20
2023-05-20T05:34:01.654Z,7.07
2023-05-20T05:36:29.528Z,3.00
2023-05-20T05:38:59.020Z,5.50
2023-05-20T05:41:26.774Z,4.87
2023-05-20T05:43:55.684Z,6.20
2023-05-20T05:46:23.648Z,6.60
2023-05-20T05:48:51.840Z,4.63
2023-05-20T05:51:20.006Z,4.80
2023-05-20T05:53:49.668Z,3.97
2023-05-20T05:56:18.730Z,5.23
2023-05-20T05:58:48.285Z,7.30
2023-05-20T06:01:17.039Z,3.50
2023-05-20T06:03:45.532Z,5.87
2023-05-20T06:06:13.810Z,5.53
2023-05-20T06:08:41.878Z,5.67
2023-05-20T06:11:11.069Z,6.90
2023-05-20T06:13:40.592Z,7.30
2023-05-20T06:16:09.193Z,4.47
2023-05-20T06:18:37.201Z,5.77
2023-05-20T06:21:06.623Z,6.00
2023-05-20T06:23:34.763Z,7.70
2023-05-20T06:26:06.284Z,5.60
2023-05-20T06:28:34.730Z,5.40
2023-05-20T06:31:04.904Z,6.50
2023-05-20T06:33:35.238Z,5.23
2023-05-20T06:36:08.370Z,7.60
2023-05-20T06:38:36.174Z,5.30
2023-05-20T06:41:04.411Z,8.07
2023-05-20T06:43:33.935Z,6.47
2023-05-20T06:46:20.647Z,4.33
2023-05-20T06:48:55.032Z,6.40
2023-05-20T06:51:23.548Z,7.60
2023-05-20T06:53:52.068Z,4.43
2023-05-20T06:56:36.170Z,7.90
2023-05-20T06:59:05.695Z,4.77
2023-05-20T07:01:37.185Z,4.63
2023-05-20T07:04:06.088Z,4.73
2023-05-20T07:06:34.605Z,6.17
2023-05-20T07:09:02.683Z,4.90
2023-05-20T07:11:30.636Z,5.70
2023-05-20T07:13:58.868Z,6.10
2023-05-20T07:16:27.622Z,8.97
2023-05-20T07:18:59.093Z,4.67
2023-05-20T07:21:27.003Z,5.70
2023-05-20T07:24:13.301Z,4.40
2023-05-20T07:26:41.078Z,5.57
2023-05-20T07:29:10.183Z,7.53
2023-05-20T07:31:39.623Z,5.50
2023-05-20T07:34:08.999Z,5.77
2023-05-20T07:36:37.841Z,6.67
2023-05-20T07:39:13.181Z,9.07
2023-05-20T07:41:42.986Z,5.97
2023-05-20T07:44:11.283Z,7.33
2023-05-20T07:46:41.796Z,9.80
2023-05-20T07:49:12.407Z,6.23
2023-05-20T07:51:41.086Z,8.43
2023-05-20T07:54:08.966Z,6.23
2023-05-20T07:56:38.635Z,7.63
2023-05-20T07:59:09.841Z,8.00
2023-05-20T08:01:43.692Z,8.00
2023-05-20T08:04:15.075Z,9.87
2023-05-20T08:06:44.906Z,7.60
2023-05-20T08:09:21.117Z,7.83
2023-05-20T08:11:52.740Z,12.03
2023-05-20T08:14:23.708Z,6.90
2023-05-20T08:16:55.092Z,5.53
2023-05-20T08:19:25.032Z,8.17
2023-05-20T08:21:53.625Z,5.80
2023-05-20T08:24:21.410Z,9.17
2023-05-20T08:26:49.945Z,8.50
2023-05-20T08:29:19.435Z,10.00
2023-05-20T08:31:47.411Z,8.80
2023-05-20T08:34:16.518Z,9.17
2023-05-20T08:36:46.076Z,7.93
2023-05-20T08:39:13.999Z,6.87
2023-05-20T08:41:42.309Z,6.33
2023-05-20T08:44:11.915Z,9.27
2023-05-20T08:46:41.628Z,8.93
2023-05-20T08:49:09.715Z,6.90
2023-05-20T08:51:38.963Z,8.77
2023-05-20T08:54:09.633Z,7.60
2023-05-20T08:56:39.268Z,7.67
2023-05-20T08:59:07.325Z,8.87
2023-05-20T09:01:41.314Z,8.07
2023-05-20T09:04:09.749Z,7.23
2023-05-20T09:06:44.124Z,11.13
2023-05-20T09:09:13.983Z,6.57
2023-05-20T09:11:42.903Z,8.20
2023-05-20T09:14:11.001Z,8.63
2023-05-20T09:16:40.972Z,7.17
2023-05-20T09:19:09.813Z,9.03
2023-05-20T09:21:38.977Z,6.70
2023-05-20T09:24:07.688Z,8.97
2023-05-20T09:26:36.956Z,6.33
2023-05-20T09:29:05.073Z,8.30
2023-05-20T09:31:34.076Z,6.80
2023-05-20T09:34:02.156Z,7.63
2023-05-20T09:36:31.841Z,8.80
2023-05-20T09:39:05.043Z,9.47
2023-05-20T09:41:41.778Z,8.73
2023-05-20T09:44:10.490Z,7.70
2023-05-20T09:46:39.881Z,12.27
2023-05-20T09:49:08.138Z,7.93
2023-05-20T09:51:36.890Z,9.10
2023-05-20T09:54:08.519Z,8.63
2023-05-20T09:56:38.440Z,8.33
2023-05-20T09:59:06.918Z,12.20
2023-05-20T10:01:34.836Z,8.13
2023-05-20T10:04:05.365Z,11.50
2023-05-20T10:06:57.430Z,7.13
2023-05-20T10:09:38.724Z,7.97
2023-05-20T10:12:21.899Z,10.47
2023-05-20T10:15:01.148Z,8.47
2023-05-20T10:17:41.405Z,8.90
2023-05-20T10:20:11.825Z,9.07
2023-05-20T10:22:41.019Z,9.57
2023-05-20T10:25:14.121Z,7.97
2023-05-20T10:27:47.937Z,10.77
2023-05-20T10:30:20.526Z,10.00
2023-05-20T10:32:57.087Z,9.13
2023-05-20T10:35:27.447Z,8.00
2023-05-20T10:37:56.476Z,9.07
2023-05-20T10:40:24.367Z,9.47
2023-05-20T10:42:54.634Z,9.73
2023-05-20T10:45:30.352Z,9.40
2023-05-20T10:47:59.714Z,9.43
2023-05-20T10:50:29.192Z,9.10
2023-05-20T10:53:05.114Z,9.43
2023-05-20T10:55:38.536Z,7.87
2023-05-20T10:58:08.103Z,7.67
2023-05-20T11:00:37.589Z,7.03
2023-05-20T11:03:06.912Z,8.30
2023-05-20T11:05:35.601Z,8.83
2023-05-20T11:08:10.746Z,10.30
2023-05-20T11:10:49.015Z,8.27
2023-05-20T11:13:19.288Z,8.37
2023-05-20T11:15:47.533Z,9.17
2023-05-20T11:18:16.945Z,9.57
2023-05-20T11:20:47.878Z,6.97
2023-05-20T11:23:16.783Z,8.20
2023-05-20T11:25:44.638Z,10.10
2023-05-20T11:28:14.763Z,6.00
2023-05-20T11:30:44.331Z,9.43
2023-05-20T11:33:13.899Z,8.47
2023-05-20T11:35:46.670Z,8.33
2023-05-20T11:38:14.826Z,7.07
2023-05-20T11:40:50.498Z,7.87
2023-05-20T11:43:20.894Z,7.87
2023-05-20T11:46:00.052Z,6.93
2023-05-20T11:48:28.609Z,8.27
2023-05-20T11:50:59.961Z,6.77
2023-05-20T11:53:29.835Z,7.10
2023-05-20T11:55:59.855Z,7.43
2023-05-20T11:58:30.576Z,7.37
2023-05-20T12:01:13.334Z,7.80
2023-05-20T12:03:49.328Z,6.53
2023-05-20T12:06:19.032Z,10.50
2023-05-20T12:08:47.738Z,8.97
2023-05-20T12:11:16.109Z,8.30
2023-05-20T12:13:46.711Z,7.73
2023-05-20T12:16:16.718Z,8.53
2023-05-20T12:18:45.070Z,9.40
2023-05-20T12:21:13.614Z,7.17
2023-05-20T12:23:42.021Z,8.67
2023-05-20T12:26:10.230Z,8.20
2023-05-20T12:28:38.457Z,8.20
2023-05-20T12:31:06.932Z,8.07
2023-05-20T12:33:36.911Z,8.90
2023-05-20T12:36:06.350Z,7.37
2023-05-20T12:38:34.868Z,7.70
2023-05-20T12:41:03.183Z,6.23
2023-05-20T12:43:31.050Z,14.17
2023-05-20T12:45:59.000Z,6.10
2023-05-20T12:48:26.780Z,6.00
2023-05-20T12:50:56.056Z,6.17
2023-05-20T12:53:23.961Z,7.20
2023-05-20T12:55:51.867Z,6.80
2023-05-20T12:58:19.674Z,7.63
2023-05-20T13:00:47.969Z,5.43
2023-05-20T13:03:15.971Z,7.23
2023-05-20T13:05:44.014Z,6.37
2023-05-20T13:08:14.670Z,10.40
2023-05-20T13:10:42.513Z,6.23
2023-05-20T13:13:10.996Z,6.90
2023-05-20T13:15:39.691Z,5.60
2023-05-20T13:18:08.362Z,4.23
2023-05-20T13:20:37.039Z,5.67
2023-05-20T13:23:05.128Z,5.67
2023-05-20T13:25:34.550Z,6.77
2023-05-20T13:28:02.594Z,6.00
2023-05-20T13:30:31.164Z,8.37
2023-05-20T13:32:59.160Z,8.03
2023-05-20T13:35:27.028Z,6.23
2023-05-20T13:37:55.059Z,4.93
2023-05-20T13:40:23.720Z,5.57
2023-05-20T13:42:53.732Z,7.37
2023-05-20T13:45:22.478Z,5.27
2023-05-20T13:47:50.382Z,6.07
2023-05-20T13:50:18.221Z,5.30
2023-05-20T13:52:46.265Z,7.00
2023-05-20T13:55:14.020Z,6.67
2023-05-20T13:57:42.105Z,6.60
2023-05-20T14:00:12.773Z,6.33
2023-05-20T14:02:41.136Z,8.37
2023-05-20T14:05:09.492Z,4.50
2023-05-20T14:07:37.896Z,3.97
2023-05-20T14:10:06.829Z,4.97
2023-05-20T14:12:34.988Z,6.20
2023-05-20T14:15:02.747Z,5.60
2023-05-20T14:17:31.983Z,6.63
2023-05-20T14:20:00.652Z,6.27
2023-05-20T14:22:28.533Z,4.13
2023-05-20T14:24:56.572Z,5.23
2023-05-20T14:27:24.332Z,7.73
2023-05-20T14:29:52.667Z,5.07
2023-05-20T14:32:20.448Z,6.03
2023-05-20T14:34:50.050Z,5.13
2023-05-20T14:37:18.532Z,3.97
2023-05-20T14:39:46.383Z,5.93
2023-05-20T14:42:14.162Z,5.13
2023-05-20T14:44:41.874Z,5.17
2023-05-20T14:47:09.849Z,3.77
2023-05-20T14:49:39.225Z,3.43
2023-05-20T14:52:08.402Z,4.57
2023-05-20T14:54:36.248Z,6.13
2023-05-20T14:57:06.267Z,4.87
2023-05-20T14:59:34.317Z,4.97
2023-05-20T15:02:02.307Z,4.77
2023-05-20T15:04:31.406Z,4.03
2023-05-20T15:06:59.485Z,5.90
2023-05-20T15:09:28.842Z,4.67
2023-05-20T15:11:56.718Z,5.73
2023-05-20T15:14:24.494Z,5.17
2023-05-20T15:16:52.321Z,7.20
2023-05-20T15:19:20.308Z,6.07
2023-05-20T15:21:49.526Z,5.37
2023-05-20T15:24:17.321Z,4.43
2023-05-20T15:26:46.631Z,4.90
2023-05-20T15:29:14.580Z,8.70
2023-05-20T15:31:42.334Z,7.80
2023-05-20T15:34:10.226Z,4.03
2023-05-20T15:36:38.028Z,4.03
2023-05-20T15:39:05.927Z,5.00
2023-05-20T15:41:33.967Z,5.90
2023-05-20T15:44:03.382Z,4.93
2023-05-20T15:46:31.367Z,4.67
2023-05-20T15:48:59.583Z,4.67
2023-05-20T15:51:27.432Z,4.73
2023-05-20T15:53:55.200Z,5.80
2023-05-20T15:56:23.048Z,4.40
2023-05-20T15:58:51.069Z,6.03
2023-05-20T16:01:22.014Z,5.83
2023-05-20T16:03:50.030Z,6.57
2023-05-20T16:06:18.530Z,4.77
2023-05-20T16:08:46.340Z,5.57
2023-05-20T16:11:14.207Z,5.83
2023-05-20T16:13:42.015Z,5.63
2023-05-20T16:16:09.848Z,5.07
2023-05-20T16:18:39.131Z,7.13
2023-05-20T16:21:08.038Z,4.47
2023-05-20T16:23:35.995Z,6.10
2023-05-20T16:26:03.830Z,4.90
2023-05-20T16:28:31.671Z,4.80
2023-05-20T16:30:59.617Z,5.70
2023-05-20T16:33:27.501Z,8.03
2023-05-20T16:35:56.900Z,6.53
2023-05-20T16:38:24.732Z,4.67
2023-05-20T16:40:52.590Z,5.87
2023-05-20T16:43:20.368Z,4.87
2023-05-20T16:45:48.631Z,5.20
2023-05-20T16:48:16.456Z,5.70
2023-05-20T16:50:44.274Z,5.27
2023-05-20T16:53:16.245Z,5.37
2023-05-20T16:55:44.254Z,7.03
2023-05-20T16:58:12.067Z,4.80
2023-05-20T17:00:39.784Z,5.50
2023-05-20T17:03:07.627Z,4.93
2023-05-20T17:05:35.932Z,4.20
2023-05-20T17:08:03.692Z,5.50
2023-05-20T17:10:33.261Z,4.93
2023-05-20T17:13:01.542Z,7.03
2023-05-20T17:15:29.428Z,6.37
2023-05-20T17:17:57.295Z,6.63
2023-05-20T17:20:25.174Z,4.63
2023-05-20T17:22:53.119Z,4.67
2023-05-20T17:25:21.487Z,4.30
2023-05-20T17:27:50.758Z,7.13
2023-05-20T17:30:18.777Z,3.90
2023-05-20T17:32:46.744Z,4.70
2023-05-20T17:35:14.760Z,5.10
2023-05-20T17:37:42.737Z,5.47
2023-05-20T17:40:12.565Z,4.00
2023-05-20T17:42:41.019Z,4.17
2023-05-20T17:45:11.414Z,6.13
2023-05-20T17:47:39.431Z,5.23
2023-05-20T17:50:10.169Z,4.50
2023-05-20T17:52:38.298Z,5.37
2023-05-20T17:55:08.120Z,5.53
2023-05-20T17:57:35.893Z,4.00
2023-05-20T18:00:05.465Z,7.37
2023-05-20T18:02:34.922Z,4.03
2023-05-20T18:05:02.901Z,5.73
2023-05-20T18:07:30.691Z,4.47
2023-05-20T18:09:58.574Z,3.90
2023-05-20T18:12:26.410Z,5.00
2023-05-20T18:14:54.448Z,4.20
2023-05-20T18:17:22.326Z,5.53
2023-05-20T18:19:51.668Z,6.97
2023-05-20T18:22:19.560Z,4.77
2023-05-20T18:24:47.372Z,6.33
2023-05-20T18:27:15.285Z,5.93
2023-05-20T18:29:43.050Z,5.70
2023-05-20T18:32:11.223Z,4.93
2023-05-20T18:34:39.060Z,5.63
2023-05-20T18:37:08.564Z,5.63
2023-05-20T18:39:36.614Z,4.60
2023-05-20T18:42:04.583Z,6.83
2023-05-20T18:44:32.355Z,4.53
2023-05-20T18:47:00.280Z,5.30
2023-05-20T18:49:28.151Z,4.63
2023-05-20T18:51:56.088Z,5.10
2023-05-20T18:54:25.258Z,5.23
2023-05-20T18:56:53.066Z,6.57
2023-05-20T18:59:22.293Z,6.47
2023-05-20T19:01:51.699Z,5.40
2023-05-20T19:04:19.591Z,7.17
2023-05-20T19:06:47.988Z,7.87
2023-05-20T19:09:15.954Z,5.63
2023-05-20T19:11:45.233Z,5.03
2023-05-20T19:14:13.071Z,6.20
2023-05-20T19:16:41.208Z,8.03
2023-05-20T19:19:09.135Z,7.17
2023-05-20T19:21:41.364Z,6.17
2023-05-20T19:24:09.703Z,5.27
2023-05-20T19:26:37.839Z,6.10
2023-05-20T19:29:07.614Z,7.07
2023-05-20T19:31:35.671Z,5.57
2023-05-20T19:34:03.723Z,7.13
2023-05-20T19:36:31.574Z,6.23
2023-05-20T19:39:00.133Z,6.20
2023-05-20T19:41:28.177Z,7.77
2023-05-20T19:43:55.984Z,6.87
2023-05-20T19:46:25.997Z,8.97
2023-05-20T19:48:53.940Z,8.80
2023-05-20T19:51:21.688Z,11.33
2023-05-20T19:53:49.638Z,8.57
2023-05-20T19:56:21.279Z,9.67
2023-05-20T19:58:49.510Z,9.93
2023-05-20T20:01:18.645Z,10.83
2023-05-20T20:03:47.792Z,10.33
2023-05-20T20:06:15.567Z,8.10
2023-05-20T20:08:45.719Z,9.13
2023-05-20T20:11:14.548Z,11.73
2023-05-20T20:13:42.260Z,8.43
2023-05-20T20:16:10.033Z,10.63
2023-05-20T20:18:38.167Z,9.93
2023-05-20T20:21:09.080Z,11.00
2023-05-20T20:23:37.949Z,9.93
2023-05-20T20:26:07.611Z,9.03
2023-05-20T20:28:35.865Z,9.97
2023-05-20T20:31:04.035Z,11.83
2023-05-20T20:33:31.912Z,9.33
2023-05-20T20:35:59.619Z,8.10
2023-05-20T20:38:28.720Z,10.60
2023-05-20T20:40:59.224Z,10.40
2023-05-20T20:43:28.808Z,9.80
2023-05-20T20:45:57.199Z,10.27
2023-05-20T20:48:26.904Z,10.20
2023-05-20T20:50:55.642Z,9.07
2023-05-20T20:53:23.401Z,12.10
2023-05-20T20:55:53.460Z,10.13
2023-05-20T20:58:22.651Z,9.57
2023-05-20T21:00:51.039Z,9.60
2023-05-20T21:03:18.989Z,10.73
2023-05-20T21:05:48.671Z,11.40
2023-05-20T21:08:16.478Z,10.63
2023-05-20T21:10:44.172Z,9.80
2023-05-20T21:13:13.346Z,10.80
2023-05-20T21:15:42.915Z,10.57
2023-05-20T21:18:11.644Z,10.90
2023-05-20T21:20:39.344Z,9.40
2023-05-20T21:23:07.195Z,10.97
2023-05-20T21:25:35.104Z,10.40
2023-05-20T21:28:03.282Z,10.73
2023-05-20T21:30:32.602Z,9.93
2023-05-20T21:33:00.731Z,10.50
2023-05-20T21:35:28.552Z,12.33
2023-05-20T21:37:56.280Z,13.17
2023-05-20T21:40:24.309Z,11.43
2023-05-20T21:42:52.105Z,13.03
2023-05-20T21:45:20.012Z,12.57
2023-05-20T21:47:49.679Z,11.00
2023-05-20T21:50:17.435Z,13.43
2023-05-20T21:52:45.345Z,14.63
2023-05-20T21:55:13.225Z,13.07
2023-05-20T21:57:41.329Z,10.93
2023-05-20T22:00:14.421Z,12.90
2023-05-20T22:02:42.653Z,12.27
2023-05-20T22:05:12.866Z,11.00
2023-05-20T22:07:43.138Z,12.03
2023-05-20T22:10:12.667Z,11.87
2023-05-20T22:12:42.304Z,11.50
2023-05-20T22:15:11.736Z,11.07
2023-05-20T22:17:39.514Z,12.23
2023-05-20T22:20:08.677Z,9.87
2023-05-20T22:22:39.101Z,10.53
2023-05-20T22:25:08.135Z,9.17
2023-05-20T22:27:36.042Z,11.47
2023-05-20T22:30:06.115Z,10.77
2023-05-20T22:32:34.050Z,11.87
2023-05-20T22:35:01.807Z,12.47
2023-05-20T22:37:30.292Z,9.40
2023-05-20T22:39:59.989Z,10.13
2023-05-20T22:42:27.690Z,10.70
2023-05-20T22:44:55.499Z,10.80
2023-05-20T22:47:23.330Z,10.00
2023-05-20T22:49:51.229Z,11.53
2023-05-20T22:52:21.175Z,12.87
2023-05-20T22:54:48.954Z,11.03
2023-05-20T22:57:18.162Z,12.43
2023-05-20T22:59:45.944Z,13.57
2023-05-20T23:02:13.645Z,14.10
2023-05-20T23:04:41.589Z,13.70
2023-05-20T23:07:09.413Z,13.30
2023-05-20T23:09:37.203Z,15.33
2023-05-20T23:12:05.614Z,14.17
2023-05-20T23:14:34.703Z,11.67
2023-05-20T23:17:02.774Z,13.63
2023-05-20T23:19:30.676Z,11.60
2023-05-20T23:21:58.470Z,11.97
2023-05-20T23:24:26.741Z,12.70
2023-05-20T23:26:54.665Z,13.43
2023-05-20T23:29:23.055Z,14.30
2023-05-20T23:31:52.209Z,11.17
2023-05-20T23:34:19.947Z,11.37
2023-05-20T23:36:47.668Z,13.40
2023-05-20T23:39:17.534Z,13.77
2023-05-20T23:41:46.425Z,12.47
2023-05-20T23:44:14.174Z,14.77
2023-05-20T23:46:42.682Z,15.90
2023-05-20T23:49:12.548Z,13.90
2023-05-20T23:51:40.222Z,13.17
2023-05-20T23:54:07.965Z,13.37
2023-05-20T23:56:37.438Z,11.37
2023-05-20T23:59:05.292Z,12.83
